createdAt,value
2018-01-15T00:00:14.712Z,996.72
2018-01-15T00:01:14.661Z,996.70
2018-01-15T00:02:14.432Z,996.67
2018-01-15T00:03:14.618Z,996.69
2018-01-15T00:04:14.432Z,996.69
2018-01-15T00:05:14.532Z,996.67
2018-01-15T00:06:14.569Z,996.64
2018-01-15T00:07:14.263Z,996.69
2018-01-15T00:08:14.398Z,996.68
2018-01-15T00:09:14.442Z,996.69
2018-01-15T00:10:14.408Z,996.68
2018-01-15T00:11:14.393Z,996.68
2018-01-15T00:12:14.267Z,996.69
2018-01-15T00:13:14.219Z,996.67
2018-01-15T00:14:14.221Z,996.69
2018-01-15T00:15:14.178Z,996.68
2018-01-15T00:16:14.327Z,996.69
2018-01-15T00:17:14.173Z,996.65
2018-01-15T00:18:14.088Z,996.65
2018-01-15T00:19:14.065Z,996.65
2018-01-15T00:20:14.212Z,996.63
2018-01-15T00:21:14.126Z,996.62
2018-01-15T00:22:15.762Z,996.61
2018-01-15T00:23:13.955Z,996.60
2018-01-15T00:24:14.190Z,996.59
2018-01-15T00:25:13.889Z,996.52
2018-01-15T00:26:14.038Z,996.49
2018-01-15T00:27:13.949Z,996.47
2018-01-15T00:28:14.014Z,996.47
2018-01-15T00:29:13.870Z,996.43
2018-01-15T00:30:13.833Z,996.41
2018-01-15T00:31:13.685Z,996.39
2018-01-15T00:32:13.821Z,996.37
2018-01-15T00:33:13.673Z,996.36
2018-01-15T00:34:13.583Z,996.38
2018-01-15T00:35:13.747Z,996.40
2018-01-15T00:36:13.664Z,996.37
2018-01-15T00:37:13.700Z,996.36
2018-01-15T00:38:15.180Z,996.40
2018-01-15T00:39:13.746Z,996.35
2018-01-15T00:40:13.563Z,996.32
2018-01-15T00:41:13.476Z,996.32
2018-01-15T00:42:13.625Z,996.29
2018-01-15T00:43:13.574Z,996.29
2018-01-15T00:44:14.301Z,996.24
2018-01-15T00:45:13.517Z,996.24
2018-01-15T00:46:13.362Z,996.20
2018-01-15T00:47:13.426Z,996.18
2018-01-15T00:48:13.333Z,996.19
2018-01-15T00:49:15.079Z,996.16
2018-01-15T00:50:13.360Z,996.16
2018-01-15T00:51:13.373Z,996.15
2018-01-15T00:52:13.276Z,996.11
2018-01-15T00:53:13.215Z,996.11
2018-01-15T00:54:13.167Z,996.09
2018-01-15T00:55:13.537Z,996.09
2018-01-15T00:56:13.082Z,996.05
2018-01-15T00:57:12.999Z,996.04
2018-01-15T00:58:13.178Z,996.07
2018-01-15T00:59:13.056Z,996.08
2018-01-15T01:00:13.121Z,996.05
2018-01-15T01:01:12.951Z,996.00
2018-01-15T01:02:12.845Z,996.02
2018-01-15T01:03:17.770Z,996.03
2018-01-15T01:04:13.004Z,996.00
2018-01-15T01:05:13.020Z,995.98
2018-01-15T01:06:12.841Z,995.96
2018-01-15T01:07:12.974Z,995.94
2018-01-15T01:08:12.917Z,995.94
2018-01-15T01:09:12.773Z,995.96
2018-01-15T01:10:14.780Z,995.97
2018-01-15T01:11:12.666Z,995.97
2018-01-15T01:12:12.675Z,995.96
2018-01-15T01:13:12.645Z,995.99
2018-01-15T01:14:12.795Z,995.96
2018-01-15T01:15:12.817Z,995.95
2018-01-15T01:16:12.676Z,995.94
2018-01-15T01:17:12.797Z,995.93
2018-01-15T01:18:12.628Z,995.90
2018-01-15T01:19:12.550Z,995.91
2018-01-15T01:20:14.237Z,995.92
2018-01-15T01:21:12.670Z,995.88
2018-01-15T01:22:12.492Z,995.83
2018-01-15T01:23:13.185Z,995.83
2018-01-15T01:24:12.414Z,995.82
2018-01-15T01:25:12.306Z,995.84
2018-01-15T01:26:12.406Z,995.83
2018-01-15T01:27:12.308Z,995.79
2018-01-15T01:28:12.416Z,995.79
2018-01-15T01:29:12.162Z,995.75
2018-01-15T01:30:12.168Z,995.73
2018-01-15T01:31:12.238Z,995.69
2018-01-15T01:32:12.131Z,995.67
2018-01-15T01:33:12.235Z,995.64
2018-01-15T01:34:12.115Z,995.62
2018-01-15T01:35:12.111Z,995.64
2018-01-15T01:36:12.111Z,995.59
2018-01-15T01:37:11.954Z,995.57
2018-01-15T01:38:12.072Z,995.59
2018-01-15T01:39:12.069Z,995.57
2018-01-15T01:40:12.108Z,995.56
2018-01-15T01:41:12.140Z,995.54
2018-01-15T01:42:11.952Z,995.47
2018-01-15T01:43:11.897Z,995.47
2018-01-15T01:44:33.835Z,995.43
2018-01-15T01:59:59.965Z,995.37
2018-01-15T02:11:11.691Z,995.24
2018-01-15T02:12:11.582Z,995.27
2018-01-15T02:13:11.622Z,995.21
2018-01-15T02:14:11.257Z,995.23
2018-01-15T02:15:11.682Z,995.19
2018-01-15T02:16:11.532Z,995.17
2018-01-15T02:17:12.126Z,995.11
2018-01-15T02:18:12.436Z,995.10
2018-01-15T02:19:10.919Z,995.06
2018-01-15T02:20:11.439Z,995.07
2018-01-15T02:21:11.958Z,995.02
2018-01-15T02:22:10.831Z,995.03
2018-01-15T02:23:12.113Z,995.04
2018-01-15T02:24:10.823Z,995.08
2018-01-15T02:25:10.744Z,995.04
2018-01-15T02:26:10.639Z,995.05
2018-01-15T02:27:10.613Z,995.07
2018-01-15T02:28:10.472Z,995.05
2018-01-15T02:29:10.587Z,995.07
2018-01-15T02:30:10.408Z,995.08
2018-01-15T02:31:10.549Z,995.09
2018-01-15T02:32:10.244Z,995.08
2018-01-15T02:33:10.229Z,995.03
2018-01-15T02:34:10.217Z,995.02
2018-01-15T02:35:10.357Z,995.00
2018-01-15T02:36:10.246Z,995.03
2018-01-15T02:37:10.135Z,995.02
2018-01-15T02:38:10.190Z,994.98
2018-01-15T02:39:10.101Z,995.01
2018-01-15T02:40:10.157Z,994.97
2018-01-15T02:41:10.177Z,995.00
2018-01-15T02:42:09.988Z,995.02
2018-01-15T02:43:10.206Z,994.96
2018-01-15T02:44:10.278Z,994.91
2018-01-15T02:45:10.018Z,994.85
2018-01-15T02:46:09.892Z,994.88
2018-01-15T02:47:09.806Z,994.91
2018-01-15T02:48:09.867Z,994.89
2018-01-15T02:49:09.913Z,994.84
2018-01-15T02:50:09.963Z,994.84
2018-01-15T02:51:09.841Z,994.83
2018-01-15T02:52:09.746Z,994.79
2018-01-15T02:53:10.033Z,994.80
2018-01-15T02:54:09.816Z,994.78
2018-01-15T02:55:09.738Z,994.79
2018-01-15T02:56:09.594Z,994.74
2018-01-15T02:57:09.663Z,994.75
2018-01-15T02:58:09.646Z,994.74
2018-01-15T02:59:09.528Z,994.74
2018-01-15T03:00:09.537Z,994.75
2018-01-15T03:01:09.554Z,994.73
2018-01-15T03:02:09.525Z,994.76
2018-01-15T03:03:09.559Z,994.74
2018-01-15T03:04:09.563Z,994.71
2018-01-15T03:05:09.418Z,994.69
2018-01-15T03:06:09.323Z,994.71
2018-01-15T03:07:09.409Z,994.73
2018-01-15T03:08:09.422Z,994.72
2018-01-15T03:09:20.999Z,994.73
2018-01-15T03:18:40.864Z,994.59
2018-01-15T03:37:08.478Z,994.36
2018-01-15T03:38:24.001Z,994.39
2018-01-15T03:39:00.364Z,994.33
2018-01-15T03:40:01.259Z,994.36
2018-01-15T03:41:01.971Z,994.37
2018-01-15T03:42:02.085Z,994.32
2018-01-15T03:43:01.195Z,994.33
2018-01-15T03:44:01.746Z,994.36
2018-01-15T03:45:01.241Z,994.35
2018-01-15T03:46:01.299Z,994.29
2018-01-15T03:47:03.482Z,994.33
2018-01-15T03:49:00.330Z,994.38
2018-01-15T03:49:59.891Z,994.36
2018-01-15T03:50:59.904Z,994.34
2018-01-15T03:51:59.982Z,994.37
2018-01-15T03:52:59.820Z,994.38
2018-01-15T03:53:59.868Z,994.34
2018-01-15T03:54:59.782Z,994.31
2018-01-15T03:55:59.531Z,994.26
2018-01-15T03:56:59.581Z,994.24
2018-01-15T03:57:59.735Z,994.23
2018-01-15T03:58:59.480Z,994.19
2018-01-15T03:59:59.491Z,994.19
2018-01-15T04:00:59.407Z,994.15
2018-01-15T04:01:59.359Z,994.15
2018-01-15T04:02:59.316Z,994.14
2018-01-15T04:03:59.286Z,994.14
2018-01-15T04:05:00.963Z,994.13
2018-01-15T04:05:59.332Z,994.14
2018-01-15T04:06:59.414Z,994.14
2018-01-15T04:07:59.353Z,994.16
2018-01-15T04:08:59.433Z,994.14
2018-01-15T04:09:59.244Z,994.12
2018-01-15T04:10:59.335Z,994.07
2018-01-15T04:11:59.261Z,994.02
2018-01-15T04:12:59.230Z,994.04
2018-01-15T04:13:59.257Z,994.03
2018-01-15T04:14:59.205Z,994.02
2018-01-15T04:15:59.040Z,994.03
2018-01-15T04:16:59.125Z,993.98
2018-01-15T04:17:59.084Z,994.03
2018-01-15T04:18:59.148Z,993.97
2018-01-15T04:19:59.025Z,993.97
2018-01-15T04:20:59.014Z,994.02
2018-01-15T04:21:58.949Z,993.93
2018-01-15T04:22:59.014Z,993.93
2018-01-15T04:23:58.903Z,993.97
2018-01-15T04:25:00.517Z,994.00
2018-01-15T04:25:59.080Z,993.98
2018-01-15T04:26:58.801Z,993.97
2018-01-15T04:27:58.798Z,993.94
2018-01-15T04:28:58.839Z,993.95
2018-01-15T04:29:58.725Z,993.94
2018-01-15T04:30:58.938Z,993.92
2018-01-15T04:31:58.737Z,993.86
2018-01-15T04:32:58.747Z,993.83
2018-01-15T04:33:58.756Z,993.82
2018-01-15T04:34:58.741Z,993.77
2018-01-15T04:35:58.617Z,993.71
2018-01-15T04:36:58.602Z,993.70
2018-01-15T04:37:58.680Z,993.69
2018-01-15T04:38:58.488Z,993.68
2018-01-15T04:39:58.539Z,993.66
2018-01-15T04:40:58.625Z,993.68
2018-01-15T04:41:58.655Z,993.64
2018-01-15T04:42:58.452Z,993.62
2018-01-15T04:43:58.344Z,993.66
2018-01-15T04:44:58.572Z,993.61
2018-01-15T04:45:58.299Z,993.62
2018-01-15T04:46:58.284Z,993.56
2018-01-15T04:47:58.295Z,993.55
2018-01-15T04:48:58.271Z,993.51
2018-01-15T04:49:58.216Z,993.52
2018-01-15T04:50:58.124Z,993.53
2018-01-15T04:51:58.780Z,993.47
2018-01-15T04:52:58.272Z,993.43
2018-01-15T04:53:58.154Z,993.44
2018-01-15T04:54:58.216Z,993.36
2018-01-15T04:55:58.236Z,993.39
2018-01-15T04:57:01.136Z,993.34
2018-01-15T04:57:59.343Z,993.31
2018-01-15T04:58:58.164Z,993.37
2018-01-15T04:59:58.158Z,993.36
2018-01-15T05:00:59.301Z,993.35
2018-01-15T05:01:59.491Z,993.34
2018-01-15T05:02:57.862Z,993.34
2018-01-15T05:03:58.116Z,993.32
2018-01-15T05:04:58.122Z,993.28
2018-01-15T05:05:57.882Z,993.25
2018-01-15T05:09:59.204Z,993.25
2018-01-15T05:10:53.187Z,993.26
2018-01-15T05:11:53.682Z,993.26
2018-01-15T05:12:54.911Z,993.26
2018-01-15T05:14:49.600Z,993.22
2018-01-15T05:15:47.528Z,993.20
2018-01-15T05:16:47.684Z,993.20
2018-01-15T05:17:47.720Z,993.19
2018-01-15T05:18:48.180Z,993.19
2018-01-15T05:19:47.657Z,993.20
2018-01-15T05:20:47.676Z,993.23
2018-01-15T05:35:33.964Z,993.03
2018-01-15T05:36:33.524Z,993.04
2018-01-15T05:37:33.474Z,993.09
2018-01-15T05:38:34.425Z,993.05
2018-01-15T05:39:34.438Z,993.10
2018-01-15T05:40:34.498Z,993.06
2018-01-15T05:41:32.851Z,993.06
2018-01-15T05:42:33.849Z,993.09
2018-01-15T05:43:34.380Z,993.10
2018-01-15T05:44:32.784Z,993.07
2018-01-15T05:45:33.926Z,993.07
2018-01-15T05:46:32.734Z,993.02
2018-01-15T05:47:32.512Z,993.03
2018-01-15T05:48:32.264Z,993.02
2018-01-15T05:49:32.241Z,992.99
2018-01-15T05:50:32.296Z,992.94
2018-01-15T05:51:32.153Z,992.93
2018-01-15T05:52:32.168Z,992.92
2018-01-15T05:53:32.139Z,992.93
2018-01-15T05:54:33.073Z,992.90
2018-01-15T05:55:32.109Z,992.87
2018-01-15T05:56:32.019Z,992.89
2018-01-15T05:57:32.032Z,992.88
2018-01-15T05:58:31.966Z,992.87
2018-01-15T05:59:31.938Z,992.82
2018-01-15T06:00:31.966Z,992.82
2018-01-15T06:01:31.920Z,992.83
2018-01-15T06:02:31.871Z,992.81
2018-01-15T06:03:31.866Z,992.78
2018-01-15T06:04:31.831Z,992.78
2018-01-15T06:05:31.878Z,992.78
2018-01-15T06:06:31.825Z,992.76
2018-01-15T06:07:31.803Z,992.77
2018-01-15T06:08:31.747Z,992.73
2018-01-15T06:09:31.702Z,992.74
2018-01-15T06:10:31.685Z,992.75
2018-01-15T06:11:31.679Z,992.74
2018-01-15T06:12:31.756Z,992.70
2018-01-15T06:13:31.660Z,992.70
2018-01-15T06:14:33.127Z,992.66
2018-01-15T06:15:31.588Z,992.61
2018-01-15T06:16:31.533Z,992.60
2018-01-15T06:17:31.497Z,992.56
2018-01-15T06:18:31.518Z,992.52
2018-01-15T06:19:31.494Z,992.48
2018-01-15T06:20:31.403Z,992.50
2018-01-15T06:21:31.459Z,992.49
2018-01-15T06:22:31.353Z,992.51
2018-01-15T06:23:31.335Z,992.49
2018-01-15T06:24:31.319Z,992.47
2018-01-15T06:25:31.392Z,992.48
2018-01-15T06:26:31.280Z,992.49
2018-01-15T06:27:31.283Z,992.52
2018-01-15T06:28:31.227Z,992.50
2018-01-15T06:29:31.146Z,992.49
2018-01-15T06:30:31.103Z,992.53
2018-01-15T06:31:31.120Z,992.50
2018-01-15T06:32:31.094Z,992.51
2018-01-15T06:33:31.102Z,992.52
2018-01-15T06:34:31.125Z,992.47
2018-01-15T06:35:31.057Z,992.49
2018-01-15T06:36:31.032Z,992.46
2018-01-15T06:37:31.027Z,992.44
2018-01-15T06:38:30.941Z,992.39
2018-01-15T06:39:30.932Z,992.36
2018-01-15T06:40:30.973Z,992.35
2018-01-15T06:41:30.907Z,992.35
2018-01-15T06:42:30.906Z,992.31
2018-01-15T06:46:47.358Z,992.35
2018-01-15T06:47:54.914Z,992.37
2018-01-15T06:48:43.401Z,992.32
2018-01-15T06:49:43.656Z,992.39
2018-01-15T06:50:43.329Z,992.39
2018-01-15T06:51:43.652Z,992.40
2018-01-15T06:52:43.268Z,992.41
2018-01-15T06:53:44.143Z,992.33
2018-01-15T06:54:43.236Z,992.34
2018-01-15T06:55:44.583Z,992.33
2018-01-15T06:57:43.842Z,992.30
2018-01-15T06:58:42.379Z,992.33
2018-01-15T06:59:42.685Z,992.35
2018-01-15T07:00:42.297Z,992.36
2018-01-15T07:01:42.260Z,992.35
2018-01-15T07:02:42.332Z,992.28
2018-01-15T07:03:42.245Z,992.25
2018-01-15T07:04:42.000Z,992.18
2018-01-15T07:05:42.172Z,992.19
2018-01-15T07:06:42.160Z,992.18
2018-01-15T07:07:44.008Z,992.09
2018-01-15T07:08:42.045Z,992.16
2018-01-15T07:09:42.187Z,992.17
2018-01-15T07:10:42.091Z,992.18
2018-01-15T07:11:41.966Z,992.09
2018-01-15T07:12:41.980Z,992.07
2018-01-15T07:13:42.120Z,992.07
2018-01-15T07:14:41.906Z,992.01
2018-01-15T07:15:41.981Z,992.01
2018-01-15T07:16:41.734Z,992.05
2018-01-15T07:17:42.069Z,992.02
2018-01-15T07:18:46.396Z,991.94
2018-01-15T07:19:41.897Z,991.98
2018-01-15T07:20:41.966Z,992.05
2018-01-15T07:21:41.621Z,992.22
2018-01-15T07:22:41.691Z,992.21
2018-01-15T07:23:41.724Z,992.16
2018-01-15T07:24:41.885Z,992.14
2018-01-15T07:25:41.935Z,992.10
2018-01-15T07:26:41.811Z,992.03
2018-01-15T07:27:41.583Z,991.96
2018-01-15T07:28:41.771Z,991.87
2018-01-15T07:29:41.684Z,991.93
2018-01-15T07:30:41.418Z,992.00
2018-01-15T07:31:41.517Z,992.04
2018-01-15T07:32:41.538Z,992.05
2018-01-15T07:33:41.516Z,992.04
2018-01-15T07:34:41.584Z,992.07
2018-01-15T07:35:41.424Z,992.08
2018-01-15T07:36:41.318Z,992.03
2018-01-15T07:37:43.158Z,991.97
2018-01-15T07:38:41.291Z,991.97
2018-01-15T07:39:41.300Z,991.98
2018-01-15T07:40:41.266Z,991.94
2018-01-15T07:41:41.376Z,992.00
2018-01-15T07:42:41.297Z,991.96
2018-01-15T07:43:41.268Z,991.91
2018-01-15T07:44:41.090Z,991.90
2018-01-15T07:45:41.201Z,991.91
2018-01-15T07:46:41.104Z,991.91
2018-01-15T07:47:41.289Z,991.92
2018-01-15T07:48:43.919Z,991.95
2018-01-15T07:49:40.980Z,991.92
2018-01-15T07:50:41.057Z,991.98
2018-01-15T07:51:41.062Z,991.97
2018-01-15T07:52:41.674Z,991.95
2018-01-15T07:53:41.008Z,991.93
2018-01-15T07:54:41.050Z,991.92
2018-01-15T07:55:41.677Z,991.85
2018-01-15T07:56:40.914Z,991.82
2018-01-15T07:57:41.138Z,991.78
2018-01-15T07:58:40.794Z,991.75
2018-01-15T07:59:42.506Z,991.73
2018-01-15T08:00:40.663Z,991.70
2018-01-15T08:01:40.801Z,991.68
2018-01-15T08:02:40.719Z,991.69
2018-01-15T08:03:40.874Z,991.68
2018-01-15T08:04:40.744Z,991.71
2018-01-15T08:05:40.539Z,991.70
2018-01-15T08:06:40.633Z,991.65
2018-01-15T08:07:40.554Z,991.65
2018-01-15T08:08:40.675Z,991.64
2018-01-15T08:09:40.553Z,991.62
2018-01-15T08:10:43.441Z,991.62
2018-01-15T08:11:40.379Z,991.65
2018-01-15T08:12:40.446Z,991.62
2018-01-15T08:13:40.406Z,991.67
2018-01-15T08:14:40.319Z,991.67
2018-01-15T08:15:40.418Z,991.63
2018-01-15T08:16:40.472Z,991.60
2018-01-15T08:17:40.416Z,991.64
2018-01-15T08:18:40.384Z,991.64
2018-01-15T08:19:40.527Z,991.67
2018-01-15T08:20:40.289Z,991.63
2018-01-15T08:21:40.270Z,991.65
2018-01-15T08:22:40.308Z,991.67
2018-01-15T08:23:40.322Z,991.70
2018-01-15T08:24:40.212Z,991.65
2018-01-15T08:25:40.114Z,991.69
2018-01-15T08:26:40.224Z,991.65
2018-01-15T08:27:40.212Z,991.62
2018-01-15T08:28:40.075Z,991.63
2018-01-15T08:29:39.973Z,991.62
2018-01-15T08:30:39.922Z,991.63
2018-01-15T08:31:39.874Z,991.62
2018-01-15T08:32:39.839Z,991.58
2018-01-15T08:33:40.166Z,991.59
2018-01-15T08:34:39.895Z,991.50
2018-01-15T08:35:39.968Z,991.48
2018-01-15T08:36:39.783Z,991.52
2018-01-15T08:37:40.020Z,991.51
2018-01-15T08:38:39.784Z,991.51
2018-01-15T08:39:40.036Z,991.50
2018-01-15T08:40:39.850Z,991.49
2018-01-15T08:41:39.914Z,991.47
2018-01-15T08:42:39.693Z,991.50
2018-01-15T08:43:39.780Z,991.49
2018-01-15T08:44:39.774Z,991.49
2018-01-15T08:45:39.603Z,991.49
2018-01-15T08:46:39.573Z,991.47
2018-01-15T08:47:39.635Z,991.46
2018-01-15T08:48:39.700Z,991.42
2018-01-15T08:49:39.640Z,991.41
2018-01-15T08:50:39.475Z,991.37
2018-01-15T08:51:39.521Z,991.37
2018-01-15T08:52:39.468Z,991.31
2018-01-15T08:53:39.497Z,991.29
2018-01-15T08:54:39.468Z,991.29
2018-01-15T08:55:39.523Z,991.26
2018-01-15T08:56:39.321Z,991.23
2018-01-15T08:57:39.480Z,991.22
2018-01-15T08:58:39.456Z,991.21
2018-01-15T08:59:39.366Z,991.25
2018-01-15T09:00:40.044Z,991.26
2018-01-15T09:01:39.327Z,991.20
2018-01-15T09:02:39.386Z,991.18
2018-01-15T09:03:39.190Z,991.17
2018-01-15T09:04:39.134Z,991.21
2018-01-15T09:05:39.168Z,991.21
2018-01-15T09:06:40.881Z,991.13
2018-01-15T09:07:39.060Z,991.16
2018-01-15T09:08:39.143Z,991.21
2018-01-15T09:09:39.322Z,991.18
2018-01-15T09:10:38.973Z,991.20
2018-01-15T09:11:39.107Z,991.13
2018-01-15T09:12:38.947Z,991.11
2018-01-15T09:13:39.019Z,991.11
2018-01-15T09:14:38.843Z,991.08
2018-01-15T09:15:38.994Z,991.08
2018-01-15T09:16:38.816Z,991.09
2018-01-15T09:17:38.866Z,991.07
2018-01-15T09:18:38.832Z,991.08
2018-01-15T09:19:38.928Z,991.04
2018-01-15T09:20:38.905Z,991.05
2018-01-15T09:21:38.871Z,991.01
2018-01-15T09:22:38.685Z,990.97
2018-01-15T09:23:38.943Z,990.93
2018-01-15T09:26:01.772Z,990.93
2018-01-15T09:27:02.207Z,990.89
2018-01-15T09:28:01.697Z,990.90
2018-01-15T09:29:01.097Z,990.90
2018-01-15T09:30:01.001Z,990.88
2018-01-15T09:31:01.625Z,990.87
2018-01-15T09:32:00.915Z,990.90
2018-01-15T09:33:00.595Z,990.85
2018-01-15T09:34:01.149Z,990.86
2018-01-15T09:57:14.363Z,990.55
2018-01-15T09:58:14.524Z,990.55
2018-01-15T09:59:14.242Z,990.50
2018-01-15T10:00:13.996Z,990.58
2018-01-15T10:01:14.139Z,990.55
2018-01-15T10:02:14.196Z,990.57
2018-01-15T10:03:15.899Z,990.54
2018-01-15T10:04:13.594Z,990.53
2018-01-15T10:05:13.522Z,990.52
2018-01-15T10:06:13.582Z,990.48
2018-01-15T10:07:15.520Z,990.43
2018-01-15T10:08:13.293Z,990.40
2018-01-15T10:11:34.260Z,990.36
2018-01-15T10:12:34.241Z,990.36
2018-01-15T10:13:33.681Z,990.33
2018-01-15T10:14:33.598Z,990.31
2018-01-15T10:15:33.432Z,990.27
2018-01-15T10:16:34.051Z,990.28
2018-01-15T10:17:34.603Z,990.23
2018-01-15T10:18:33.598Z,990.23
2018-01-15T10:19:34.127Z,990.22
2018-01-15T10:20:33.604Z,990.22
2018-01-15T10:44:17.796Z,989.59
2018-01-15T10:48:42.891Z,989.45
2018-01-15T10:49:51.893Z,989.40
2018-01-15T10:53:30.349Z,989.28
2018-01-15T11:01:47.639Z,989.17
2018-01-15T11:02:46.497Z,989.10
2018-01-15T11:36:09.595Z,988.40
2018-01-15T11:37:10.522Z,988.35
2018-01-15T11:38:09.569Z,988.21
2018-01-15T11:40:54.132Z,988.08
2018-01-15T11:41:54.181Z,988.04
2018-01-15T11:42:54.172Z,988.06
2018-01-15T11:43:54.705Z,988.04
2018-01-15T11:44:54.615Z,988.05
2018-01-15T11:45:53.948Z,988.02
2018-01-15T11:46:55.405Z,988.05
2018-01-15T11:47:53.959Z,987.99
2018-01-15T11:48:53.713Z,987.92
2018-01-15T11:49:53.752Z,987.89
2018-01-15T11:50:54.409Z,987.87
2018-01-15T12:34:52.706Z,986.96
2018-01-15T12:37:33.073Z,986.84
2018-01-15T12:38:32.779Z,986.74
2018-01-15T12:39:30.762Z,986.79
2018-01-15T12:40:30.205Z,986.78
2018-01-15T12:41:30.172Z,986.74
2018-01-15T12:42:31.048Z,986.72
2018-01-15T12:43:31.014Z,986.73
2018-01-15T12:44:30.480Z,986.73
2018-01-15T12:47:02.338Z,986.68
2018-01-15T12:48:01.634Z,986.72
2018-01-15T12:49:01.592Z,986.73
2018-01-15T12:50:01.591Z,986.63
2018-01-15T12:51:01.480Z,986.63
2018-01-15T12:52:01.310Z,986.63
2018-01-15T12:53:01.381Z,986.65
2018-01-15T12:54:01.227Z,986.63
2018-01-15T12:55:01.183Z,986.56
2018-01-15T12:56:01.218Z,986.59
2018-01-15T12:57:01.153Z,986.50
2018-01-15T12:58:01.120Z,986.57
2018-01-15T12:59:01.138Z,986.53
2018-01-15T13:00:01.060Z,986.49
2018-01-15T13:01:01.099Z,986.43
2018-01-15T13:02:01.016Z,986.34
2018-01-15T13:03:01.025Z,986.28
2018-01-15T13:04:00.978Z,986.25
2018-01-15T13:05:00.940Z,986.17
2018-01-15T13:06:00.961Z,986.15
2018-01-15T13:07:00.930Z,986.06
2018-01-15T13:08:00.911Z,986.07
2018-01-15T13:09:00.903Z,986.07
2018-01-15T13:10:00.843Z,986.06
2018-01-15T13:11:00.843Z,985.99
2018-01-15T13:12:00.819Z,985.96
2018-01-15T13:13:00.768Z,985.93
2018-01-15T13:14:00.743Z,985.89
2018-01-15T13:15:02.237Z,985.89
2018-01-15T13:16:00.733Z,985.76
2018-01-15T13:17:00.676Z,985.82
2018-01-15T13:18:00.640Z,985.81
2018-01-15T13:19:00.653Z,985.81
2018-01-15T13:20:00.627Z,985.75
2018-01-15T13:21:00.598Z,985.71
2018-01-15T13:22:00.551Z,985.83
2018-01-15T13:23:00.570Z,985.77
2018-01-15T13:24:00.550Z,985.71
2018-01-15T13:25:00.481Z,985.71
2018-01-15T13:26:01.244Z,985.63
2018-01-15T13:27:00.442Z,985.64
2018-01-15T13:28:00.491Z,985.63
2018-01-15T13:29:00.458Z,985.58
2018-01-15T13:30:00.438Z,985.49
2018-01-15T13:31:00.411Z,985.48
2018-01-15T13:32:00.323Z,985.51
2018-01-15T13:33:00.305Z,985.48
2018-01-15T13:34:00.354Z,985.51
2018-01-15T13:35:00.276Z,985.43
2018-01-15T13:36:00.267Z,985.43
2018-01-15T13:37:00.217Z,985.37
2018-01-15T13:38:00.266Z,985.33
2018-01-15T13:39:00.212Z,985.28
2018-01-15T13:40:00.328Z,985.29
2018-01-15T13:41:00.138Z,985.26
2018-01-15T13:42:00.131Z,985.16
2018-01-15T13:43:00.066Z,985.20
2018-01-15T13:44:00.106Z,985.10
2018-01-15T13:46:51.920Z,985.02
2018-01-15T13:47:51.851Z,984.93
2018-01-15T13:48:51.841Z,984.98
2018-01-15T13:49:51.614Z,984.96
2018-01-15T13:50:51.832Z,985.00
2018-01-15T13:51:51.747Z,984.76
2018-01-15T13:52:51.571Z,984.62
2018-01-15T13:53:51.335Z,984.64
2018-01-15T13:54:51.276Z,984.58
2018-01-15T13:55:51.247Z,984.54
2018-01-15T13:56:51.238Z,984.42
2018-01-15T13:57:51.446Z,984.37
2018-01-15T13:58:51.199Z,984.40
2018-01-15T13:59:51.652Z,984.38
2018-01-15T14:00:55.516Z,984.36
2018-01-15T14:10:51.192Z,984.02
2018-01-15T14:11:21.582Z,983.95
2018-01-15T14:14:13.450Z,983.87
2018-01-15T14:15:10.528Z,983.87
2018-01-15T14:16:07.501Z,983.91
2018-01-15T14:17:06.783Z,983.84
2018-01-15T14:18:06.756Z,983.77
2018-01-15T14:19:06.771Z,983.71
2018-01-15T14:20:06.843Z,983.72
2018-01-15T14:21:09.353Z,983.76
2018-01-15T14:22:13.243Z,983.62
2018-01-15T14:23:05.966Z,983.53
2018-01-15T14:24:05.837Z,983.61
2018-01-15T14:25:07.739Z,983.54
2018-01-15T14:26:05.861Z,983.52
2018-01-15T14:27:05.778Z,983.51
2018-01-15T14:28:05.785Z,983.49
2018-01-15T14:29:05.690Z,983.47
2018-01-15T14:30:05.678Z,983.46
2018-01-15T14:31:05.586Z,983.39
2018-01-15T14:32:05.640Z,983.39
2018-01-15T14:33:05.523Z,983.44
2018-01-15T14:34:05.568Z,983.33
2018-01-15T14:35:05.570Z,983.33
2018-01-15T14:36:05.604Z,983.24
2018-01-15T14:37:05.439Z,983.17
2018-01-15T14:38:05.627Z,983.12
2018-01-15T14:39:05.439Z,983.07
2018-01-15T14:40:05.473Z,983.10
2018-01-15T14:41:05.287Z,983.08
2018-01-15T14:42:05.300Z,983.05
2018-01-15T14:43:05.316Z,982.98
2018-01-15T14:44:05.354Z,982.97
2018-01-15T14:45:05.359Z,982.84
2018-01-15T14:46:05.299Z,982.83
2018-01-15T14:47:05.224Z,982.84
2018-01-15T14:48:05.194Z,982.85
2018-01-15T14:49:05.147Z,982.82
2018-01-15T14:50:05.126Z,982.81
2018-01-15T14:51:05.242Z,982.76
2018-01-15T14:52:05.054Z,982.74
2018-01-15T14:53:05.105Z,982.74
2018-01-15T14:54:04.999Z,982.73
2018-01-15T14:55:05.129Z,982.71
2018-01-15T14:56:05.034Z,982.74
2018-01-15T14:57:05.083Z,982.71
2018-01-15T14:58:05.083Z,982.63
2018-01-15T14:59:05.707Z,982.61
2018-01-15T15:00:05.506Z,982.61
2018-01-15T15:01:04.913Z,982.54
2018-01-15T15:02:04.842Z,982.54
2018-01-15T15:03:04.807Z,982.55
2018-01-15T15:04:04.850Z,982.59
2018-01-15T15:05:04.808Z,982.57
2018-01-15T15:06:04.796Z,982.50
2018-01-15T15:07:04.856Z,982.55
2018-01-15T15:08:04.843Z,982.52
2018-01-15T15:09:04.679Z,982.44
2018-01-15T15:10:05.304Z,982.45
2018-01-15T15:11:04.566Z,982.42
2018-01-15T15:12:04.671Z,982.46
2018-01-15T15:13:04.644Z,982.38
2018-01-15T15:14:04.578Z,982.36
2018-01-15T15:15:04.567Z,982.32
2018-01-15T15:16:04.553Z,982.29
2018-01-15T15:17:04.520Z,982.30
2018-01-15T15:18:04.486Z,982.33
2018-01-15T15:19:04.638Z,982.29
2018-01-15T15:20:04.517Z,982.22
2018-01-15T15:21:05.160Z,982.23
2018-01-15T15:23:26.683Z,982.18
2018-01-15T15:24:25.600Z,982.13
2018-01-15T15:26:18.853Z,982.09
2018-01-15T15:27:18.863Z,982.05
2018-01-15T15:28:18.993Z,982.06
2018-01-15T15:29:18.834Z,982.04
2018-01-15T15:30:18.879Z,982.05
2018-01-15T15:31:18.623Z,982.00
2018-01-15T15:32:18.517Z,982.02
2018-01-15T15:33:18.537Z,981.90
2018-01-15T15:34:18.358Z,981.94
2018-01-15T15:35:18.595Z,981.86
2018-01-15T15:36:18.349Z,981.84
2018-01-15T15:37:18.356Z,981.85
2018-01-15T15:38:18.380Z,981.84
2018-01-15T15:39:18.384Z,981.87
2018-01-15T15:40:18.229Z,981.84
2018-01-15T15:41:18.229Z,981.81
2018-01-15T15:42:18.206Z,981.82
2018-01-15T15:43:18.159Z,981.78
2018-01-15T15:44:18.302Z,981.80
2018-01-15T15:45:18.904Z,981.75
2018-01-15T15:46:18.083Z,981.83
2018-01-15T15:47:18.077Z,981.79
2018-01-15T15:48:18.032Z,981.69
2018-01-15T15:49:18.039Z,981.72
2018-01-15T15:50:18.069Z,981.65
2018-01-15T15:51:18.032Z,981.61
2018-01-15T15:52:17.967Z,981.56
2018-01-15T15:54:43.513Z,981.50
2018-01-15T15:55:43.620Z,981.52
2018-01-15T15:56:43.473Z,981.51
2018-01-15T15:57:43.151Z,981.45
2018-01-15T15:58:43.095Z,981.40
2018-01-15T15:59:43.267Z,981.40
2018-01-15T16:02:06.443Z,981.28
2018-01-15T16:03:06.369Z,981.32
2018-01-15T16:04:06.028Z,981.21
2018-01-15T16:05:06.897Z,981.18
2018-01-15T16:06:05.875Z,981.17
2018-01-15T16:07:06.046Z,981.19
2018-01-15T16:08:05.806Z,981.12
2018-01-15T16:09:05.765Z,981.16
2018-01-15T16:10:05.753Z,981.08
2018-01-15T16:11:05.776Z,981.10
2018-01-15T16:12:05.695Z,981.13
2018-01-15T16:13:06.547Z,981.10
2018-01-15T16:14:07.013Z,981.15
2018-01-15T16:15:05.737Z,981.06
2018-01-15T16:16:07.469Z,981.02
2018-01-15T16:25:49.607Z,980.90
2018-01-15T16:26:44.491Z,980.87
2018-01-15T16:27:55.686Z,980.79
2018-01-15T16:28:53.589Z,980.86
2018-01-15T16:29:40.730Z,980.80